Terminal Aerodrome Forecast
Issued by NWS

Current Version | Previous Version | Graphics & Text | Print | Product List | Glossary On
Versions: 1 2 3 4 5 6 7 8 9 10 11 12 13 14 15 16 17 18 19 20 21 22
710
FTUS41 KILN 100309 AAA
TAFLUK
TAF AMD
KLUK 100309Z 1003/1024 26010KT P6SM -SHSN SCT025 OVC050
      TEMPO 1004/1006 3SM -SHSN BKN022
     FM101200 27011KT 3SM -SHSN OVC025
     FM101600 28012KT P6SM OVC028
     FM101900 28012KT P6SM OVC040=

USA.gov is the U.S. government's official web portal to all federal, state and local government web resources and services.